createdAt,value
2017-12-12T00:00:52.212Z,99.99
2017-12-12T00:01:52.084Z,99.99
2017-12-12T00:03:44.855Z,99.99
2017-12-12T00:04:44.720Z,99.99
2017-12-12T00:06:37.445Z,99.99
2017-12-12T00:07:37.358Z,99.99
2017-12-12T00:09:30.139Z,99.99
2017-12-12T00:10:30.000Z,99.99
2017-12-12T00:12:22.742Z,99.99
2017-12-12T00:13:22.638Z,99.99
2017-12-12T00:15:15.401Z,99.99
2017-12-12T00:16:15.267Z,99.99
2017-12-12T00:18:08.047Z,99.99
2017-12-12T00:19:07.908Z,99.99
2017-12-12T00:21:00.632Z,99.99
2017-12-12T00:22:00.540Z,99.99
2017-12-12T00:23:53.316Z,99.99
2017-12-12T00:24:53.178Z,99.99
2017-12-12T00:26:45.899Z,99.99
2017-12-12T00:27:45.810Z,99.99
2017-12-12T00:29:39.076Z,99.99
2017-12-12T00:30:38.935Z,99.99
2017-12-12T00:32:31.667Z,99.99
2017-12-12T00:33:31.582Z,99.99
2017-12-12T00:35:24.354Z,99.99
2017-12-12T00:36:24.218Z,99.99
2017-12-12T00:38:16.951Z,99.99
2017-12-12T00:39:16.857Z,99.99
2017-12-12T00:41:09.627Z,99.99
2017-12-12T00:42:09.492Z,99.99
2017-12-12T00:44:02.265Z,99.99
2017-12-12T00:45:02.125Z,99.99
2017-12-12T00:46:54.854Z,99.99
2017-12-12T00:47:54.766Z,99.99
2017-12-12T00:49:47.534Z,99.99
2017-12-12T00:50:47.402Z,99.99
2017-12-12T00:52:40.131Z,99.99
2017-12-12T00:53:40.042Z,99.99
2017-12-12T00:55:32.817Z,99.99
2017-12-12T00:56:32.683Z,99.99
2017-12-12T00:58:25.418Z,99.99
2017-12-12T00:59:25.331Z,99.99
2017-12-12T01:01:18.103Z,99.99
2017-12-12T01:02:17.967Z,99.99
2017-12-12T01:04:10.740Z,99.99
2017-12-12T01:05:10.603Z,99.99
2017-12-12T01:07:03.343Z,99.99
2017-12-12T01:08:03.253Z,99.99
2017-12-12T01:09:56.021Z,99.99
2017-12-12T01:10:55.889Z,99.99
2017-12-12T01:12:48.611Z,99.99
2017-12-12T01:13:48.525Z,99.99
2017-12-12T01:15:41.787Z,99.99
2017-12-12T01:16:41.648Z,99.99
2017-12-12T01:18:34.380Z,99.99
2017-12-12T01:19:34.292Z,99.99
2017-12-12T01:21:27.557Z,99.99
2017-12-12T01:22:27.418Z,99.99
2017-12-12T01:24:20.141Z,99.99
2017-12-12T01:25:20.063Z,99.99
2017-12-12T01:27:12.827Z,99.99
2017-12-12T01:28:12.688Z,99.99
2017-12-12T01:30:05.467Z,99.99
2017-12-12T01:31:05.327Z,99.99
2017-12-12T01:32:58.047Z,99.99
2017-12-12T01:33:57.962Z,99.99
2017-12-12T01:35:50.727Z,99.99
2017-12-12T01:36:50.595Z,99.99
2017-12-12T01:38:43.320Z,99.99
2017-12-12T01:39:43.235Z,99.99
2017-12-12T01:41:35.996Z,99.99
2017-12-12T01:42:35.861Z,99.99
2017-12-12T01:44:28.588Z,99.99
2017-12-12T01:45:28.500Z,99.99
2017-12-12T01:47:21.271Z,99.99
2017-12-12T01:48:21.138Z,99.99
2017-12-12T01:50:13.905Z,99.99
2017-12-12T01:51:13.767Z,99.99
2017-12-12T01:53:06.541Z,99.99
2017-12-12T01:54:06.408Z,99.99
2017-12-12T01:55:59.175Z,99.99
2017-12-12T01:56:59.040Z,99.99
2017-12-12T01:58:51.772Z,99.99
2017-12-12T01:59:51.675Z,99.99
2017-12-12T02:01:44.444Z,99.99
2017-12-12T02:02:44.306Z,99.99
2017-12-12T02:04:37.039Z,99.99
2017-12-12T02:05:36.951Z,99.99
2017-12-12T02:07:29.727Z,99.99
2017-12-12T02:08:29.595Z,99.99
2017-12-12T02:10:22.316Z,99.99
2017-12-12T02:11:22.226Z,99.99
2017-12-12T02:13:15.001Z,99.99
2017-12-12T02:14:14.867Z,99.99
2017-12-12T02:16:07.604Z,99.99
2017-12-12T02:17:07.513Z,99.99
2017-12-12T02:19:00.327Z,99.99
2017-12-12T02:20:00.160Z,99.99
2017-12-12T02:21:52.935Z,99.99
2017-12-12T02:22:52.790Z,99.99
2017-12-12T02:24:45.518Z,99.99
2017-12-12T02:25:45.431Z,99.99
2017-12-12T02:27:38.197Z,99.99
2017-12-12T02:28:38.064Z,99.99
2017-12-12T02:30:30.791Z,99.99
2017-12-12T02:31:30.703Z,99.99
2017-12-12T02:33:23.486Z,99.99
2017-12-12T02:34:23.339Z,99.99
2017-12-12T02:36:16.066Z,99.99
2017-12-12T02:37:15.979Z,99.99
2017-12-12T02:39:08.751Z,99.99
2017-12-12T02:40:08.616Z,99.99
2017-12-12T02:42:01.341Z,99.99
2017-12-12T02:43:01.251Z,99.99
2017-12-12T02:44:54.031Z,99.99
2017-12-12T02:45:53.900Z,99.99
2017-12-12T02:47:46.658Z,99.99
2017-12-12T02:48:46.530Z,99.99
2017-12-12T02:50:39.250Z,99.99
2017-12-12T02:51:39.160Z,99.99
2017-12-12T02:53:31.940Z,99.99
2017-12-12T02:54:31.805Z,99.99
2017-12-12T02:56:24.631Z,99.99
2017-12-12T02:57:24.548Z,99.99
2017-12-12T02:59:17.305Z,99.99
2017-12-12T03:00:17.168Z,99.99
2017-12-12T03:02:09.885Z,99.99
2017-12-12T03:03:09.799Z,99.99
2017-12-12T03:05:02.572Z,99.99
2017-12-12T03:06:02.437Z,99.99
2017-12-12T03:07:55.160Z,99.99
2017-12-12T03:08:55.073Z,99.99
2017-12-12T03:10:47.840Z,99.99
2017-12-12T03:11:47.706Z,99.87
2017-12-12T03:13:40.450Z,99.99
2017-12-12T03:14:40.363Z,99.99
2017-12-12T03:16:33.134Z,99.77
2017-12-12T03:17:33.000Z,99.72
2017-12-12T03:19:25.784Z,99.99
2017-12-12T03:20:25.643Z,99.99
2017-12-12T03:22:18.376Z,99.99
2017-12-12T03:23:18.285Z,99.99
2017-12-12T03:25:11.061Z,99.99
2017-12-12T03:26:10.919Z,99.99
2017-12-12T03:28:03.657Z,99.99
2017-12-12T03:29:03.568Z,99.99
2017-12-12T03:30:56.349Z,99.99
2017-12-12T03:31:56.209Z,99.99
2017-12-12T03:33:48.933Z,99.99
2017-12-12T03:34:48.841Z,99.99
2017-12-12T03:36:41.601Z,99.99
2017-12-12T03:37:41.467Z,99.99
2017-12-12T03:39:34.189Z,99.99
2017-12-12T03:40:34.100Z,99.99
2017-12-12T03:42:27.366Z,99.99
2017-12-12T03:43:27.230Z,99.99
2017-12-12T03:45:19.951Z,99.99
2017-12-12T03:46:19.869Z,99.99
2017-12-12T03:48:12.630Z,99.99
2017-12-12T03:49:12.671Z,99.99
2017-12-12T03:51:05.282Z,99.99
2017-12-12T03:52:05.149Z,99.99
2017-12-12T03:53:57.877Z,99.99
2017-12-12T03:54:57.784Z,99.99
2017-12-12T03:56:50.551Z,99.99
2017-12-12T03:57:50.416Z,99.99
2017-12-12T03:59:43.139Z,99.99
2017-12-12T04:00:43.050Z,99.99
2017-12-12T04:02:35.832Z,99.99
2017-12-12T04:03:35.698Z,99.99
2017-12-12T04:05:28.424Z,99.99
2017-12-12T04:06:28.338Z,99.99
2017-12-12T04:08:21.114Z,99.99
2017-12-12T04:09:20.974Z,99.99
2017-12-12T04:11:13.689Z,99.99
2017-12-12T04:12:13.603Z,99.99
2017-12-12T04:14:06.376Z,99.99
2017-12-12T04:15:06.248Z,99.99
2017-12-12T04:16:58.970Z,99.99
2017-12-12T04:17:58.882Z,99.99
2017-12-12T04:19:51.656Z,99.99
2017-12-12T04:20:51.524Z,99.99
2017-12-12T04:22:44.297Z,99.99
2017-12-12T04:23:44.164Z,99.99
2017-12-12T04:25:37.402Z,99.99
2017-12-12T04:26:37.308Z,99.99
2017-12-12T04:28:30.072Z,99.99
2017-12-12T04:29:29.938Z,99.99
2017-12-12T04:31:22.658Z,99.99
2017-12-12T04:32:22.576Z,99.99
2017-12-12T04:34:15.340Z,99.99
2017-12-12T04:35:15.209Z,99.99
2017-12-12T04:37:07.931Z,99.99
2017-12-12T04:38:07.846Z,99.99
2017-12-12T04:40:00.635Z,99.99
2017-12-12T04:41:00.482Z,99.99
2017-12-12T04:42:53.719Z,99.99
2017-12-12T04:43:53.624Z,99.99
2017-12-12T04:45:46.401Z,99.99
2017-12-12T04:46:46.271Z,99.99
2017-12-12T04:48:38.986Z,99.99
2017-12-12T04:49:38.898Z,99.99
2017-12-12T04:51:31.678Z,99.99
2017-12-12T04:52:31.544Z,99.99
2017-12-12T04:54:24.315Z,99.99
2017-12-12T04:55:24.188Z,99.99
2017-12-12T04:57:16.904Z,99.99
2017-12-12T04:58:16.815Z,99.99
2017-12-12T05:00:09.601Z,99.99
2017-12-12T05:01:09.464Z,99.99
2017-12-12T05:03:02.291Z,99.99
2017-12-12T05:04:02.123Z,99.99
2017-12-12T05:05:54.909Z,99.99
2017-12-12T05:06:54.779Z,99.99
2017-12-12T05:08:47.507Z,99.96
2017-12-12T05:09:47.420Z,99.49
2017-12-12T05:11:40.184Z,99.68
2017-12-12T05:12:40.048Z,99.99
2017-12-12T05:14:33.344Z,99.96
2017-12-12T05:15:33.217Z,99.87
2017-12-12T05:17:25.992Z,99.99
2017-12-12T05:18:25.879Z,99.99
2017-12-12T05:20:18.640Z,99.68
2017-12-12T05:21:18.509Z,99.99
2017-12-12T05:23:11.245Z,99.99
2017-12-12T05:24:11.167Z,99.99
2017-12-12T05:26:03.929Z,99.99
2017-12-12T05:27:03.797Z,99.99
2017-12-12T05:28:56.526Z,99.11
2017-12-12T05:29:56.433Z,99.58
2017-12-12T05:31:49.206Z,99.49
2017-12-12T05:32:49.060Z,99.58
2017-12-12T05:34:41.838Z,98.92
2017-12-12T05:35:41.698Z,99.20
2017-12-12T05:37:34.916Z,99.20
2017-12-12T05:38:34.829Z,99.20
2017-12-12T05:40:27.600Z,98.35
2017-12-12T05:41:27.458Z,99.01
2017-12-12T05:43:20.208Z,98.73
2017-12-12T05:44:20.092Z,98.54
2017-12-12T05:46:12.855Z,98.82
2017-12-12T05:47:12.722Z,97.88
2017-12-12T05:49:05.461Z,97.88
2017-12-12T05:50:05.375Z,97.12
2017-12-12T05:51:58.144Z,97.02
2017-12-12T05:52:58.014Z,97.69
2017-12-12T05:54:50.776Z,97.02
2017-12-12T05:55:50.642Z,97.31
2017-12-12T05:57:43.375Z,97.45
2017-12-12T05:58:43.279Z,97.31
2017-12-12T06:00:36.040Z,97.12
2017-12-12T06:01:35.909Z,97.40
2017-12-12T06:03:28.628Z,96.92
2017-12-12T06:04:28.536Z,96.73
2017-12-12T06:06:21.315Z,96.73
2017-12-12T06:07:21.170Z,96.64
2017-12-12T06:09:13.897Z,96.26
2017-12-12T06:10:13.809Z,97.12
2017-12-12T06:12:06.586Z,97.31
2017-12-12T06:13:06.454Z,97.12
2017-12-12T06:14:59.220Z,97.31
2017-12-12T06:15:59.089Z,97.31
2017-12-12T06:17:51.821Z,97.40
2017-12-12T06:18:51.727Z,97.78
2017-12-12T06:20:44.494Z,96.36
2017-12-12T06:21:44.360Z,96.26
2017-12-12T06:23:37.097Z,95.50
2017-12-12T06:24:37.010Z,96.26
2017-12-12T06:26:29.783Z,95.60
2017-12-12T06:27:29.663Z,93.51
2017-12-12T06:29:22.871Z,92.09
2017-12-12T06:30:22.777Z,92.09
2017-12-12T06:32:15.545Z,92.47
2017-12-12T06:33:15.406Z,92.18
2017-12-12T06:35:08.130Z,91.80
2017-12-12T06:36:08.043Z,90.10
2017-12-12T06:38:00.876Z,88.77
2017-12-12T06:39:00.693Z,89.72
2017-12-12T06:40:53.463Z,87.92
2017-12-12T06:41:53.328Z,87.54
2017-12-12T06:43:46.047Z,86.87
2017-12-12T06:44:45.958Z,86.59
2017-12-12T06:46:38.726Z,86.30
2017-12-12T06:47:38.592Z,86.78
2017-12-12T06:49:31.358Z,85.74
2017-12-12T06:50:31.373Z,84.69
2017-12-12T06:52:24.045Z,84.50
2017-12-12T06:53:23.907Z,84.69
2017-12-12T06:55:16.632Z,84.31
2017-12-12T06:56:16.542Z,84.12
2017-12-12T06:58:09.436Z,83.84
2017-12-12T06:59:09.213Z,84.50
2017-12-12T07:01:02.476Z,83.94
2017-12-12T07:02:02.444Z,83.70
2017-12-12T07:03:55.722Z,83.08
2017-12-12T07:04:55.572Z,83.13
2017-12-12T07:06:48.412Z,82.75
2017-12-12T07:07:48.266Z,83.70
2017-12-12T07:09:41.008Z,83.23
2017-12-12T07:10:40.922Z,83.80
2017-12-12T07:12:34.197Z,83.42
2017-12-12T07:13:34.062Z,84.17
2017-12-12T07:15:26.789Z,83.32
2017-12-12T07:16:26.700Z,83.42
2017-12-12T07:18:19.462Z,83.89
2017-12-12T07:19:19.329Z,83.13
2017-12-12T07:21:12.046Z,82.47
2017-12-12T07:22:11.956Z,82.28
2017-12-12T07:24:04.739Z,82.18
2017-12-12T07:25:04.594Z,82.75
2017-12-12T07:26:57.318Z,83.51
2017-12-12T07:27:57.229Z,83.42
2017-12-12T07:29:50.001Z,83.98
2017-12-12T07:30:49.876Z,84.36
2017-12-12T07:32:42.593Z,83.89
2017-12-12T07:33:42.499Z,84.46
2017-12-12T07:35:35.267Z,84.27
2017-12-12T07:36:35.134Z,84.84
2017-12-12T07:38:27.858Z,84.36
2017-12-12T07:39:27.808Z,84.36
2017-12-12T07:41:20.565Z,83.70
2017-12-12T07:42:20.419Z,83.89
2017-12-12T07:44:13.195Z,83.13
2017-12-12T07:45:13.049Z,83.13
2017-12-12T07:47:05.771Z,83.04
2017-12-12T07:48:05.679Z,83.51
2017-12-12T07:49:58.444Z,84.17
2017-12-12T07:50:58.313Z,84.08
2017-12-12T07:52:51.061Z,83.89
2017-12-12T07:53:51.004Z,84.08
2017-12-12T07:55:44.733Z,84.84
2017-12-12T07:56:44.599Z,85.03
2017-12-12T07:58:37.600Z,84.74
2017-12-12T07:59:37.238Z,84.08
2017-12-12T08:01:30.051Z,84.94
2017-12-12T08:02:29.919Z,85.13
2017-12-12T08:04:22.679Z,84.84
2017-12-12T08:05:22.558Z,84.65
2017-12-12T08:07:15.324Z,84.27
2017-12-12T08:08:15.189Z,84.46
2017-12-12T08:10:07.973Z,84.46
2017-12-12T08:11:07.835Z,84.55
2017-12-12T08:13:00.570Z,84.27
2017-12-12T08:14:00.479Z,84.94
2017-12-12T08:15:53.263Z,84.36
2017-12-12T08:16:53.125Z,81.52
2017-12-12T08:18:45.851Z,78.20
2017-12-12T08:19:45.764Z,78.49
2017-12-12T08:21:38.553Z,79.06
2017-12-12T08:22:45.552Z,79.34
2017-12-12T08:24:31.184Z,80.76
2017-12-12T08:25:31.050Z,80.10
2017-12-12T08:27:23.818Z,79.34
2017-12-12T08:28:23.682Z,78.39
2017-12-12T08:30:16.445Z,77.45
2017-12-12T08:31:16.311Z,77.64
2017-12-12T08:33:09.511Z,78.02
2017-12-12T08:34:08.950Z,77.64
2017-12-12T08:36:01.749Z,77.45
2017-12-12T08:37:01.681Z,76.97
2017-12-12T08:38:54.528Z,77.03
2017-12-12T08:39:54.434Z,77.16
2017-12-12T08:41:47.201Z,77.06
2017-12-12T08:42:47.121Z,77.73
2017-12-12T08:44:39.799Z,78.49
2017-12-12T08:45:39.707Z,78.20
2017-12-12T08:47:32.466Z,77.35
2017-12-12T08:48:32.331Z,77.12
2017-12-12T08:50:25.099Z,77.40
2017-12-12T08:51:24.971Z,77.78
2017-12-12T08:53:17.731Z,78.11
2017-12-12T08:54:17.603Z,77.97
2017-12-12T08:56:10.393Z,77.35
2017-12-12T08:57:10.246Z,77.50
2017-12-12T08:59:03.476Z,77.25
2017-12-12T09:00:03.387Z,77.40
2017-12-12T09:01:56.156Z,77.35
2017-12-12T09:02:56.018Z,77.88
2017-12-12T09:04:49.244Z,76.84
2017-12-12T09:05:49.150Z,77.22
2017-12-12T09:07:41.923Z,78.73
2017-12-12T09:08:41.786Z,78.20
2017-12-12T09:10:34.558Z,78.58
2017-12-12T09:11:34.424Z,78.26
2017-12-12T09:13:27.650Z,78.30
2017-12-12T09:14:27.556Z,78.26
2017-12-12T09:16:20.333Z,78.58
2017-12-12T09:17:20.201Z,79.02
2017-12-12T09:19:12.917Z,79.34
2017-12-12T09:20:12.829Z,79.53
2017-12-12T09:22:05.604Z,78.67
2017-12-12T09:23:05.466Z,79.02
2017-12-12T09:24:58.184Z,79.25
2017-12-12T09:25:58.096Z,78.20
2017-12-12T09:27:50.868Z,78.58
2017-12-12T09:28:50.731Z,78.67
2017-12-12T09:30:43.496Z,78.58
2017-12-12T09:31:43.366Z,79.06
2017-12-12T09:33:36.086Z,78.87
2017-12-12T09:34:35.996Z,79.25
2017-12-12T09:36:28.787Z,78.67
2017-12-12T09:37:28.646Z,78.58
2017-12-12T09:39:21.383Z,78.87
2017-12-12T09:40:21.286Z,78.67
2017-12-12T09:42:14.051Z,79.63
2017-12-12T09:43:13.918Z,79.34
2017-12-12T09:45:06.666Z,79.72
2017-12-12T09:46:06.576Z,78.96
2017-12-12T09:47:59.345Z,79.63
2017-12-12T09:48:59.207Z,78.67
2017-12-12T09:50:52.005Z,78.67
2017-12-12T09:51:51.848Z,78.77
2017-12-12T09:53:44.573Z,78.96
2017-12-12T09:54:44.477Z,78.67
2017-12-12T09:56:37.756Z,79.06
2017-12-12T09:57:37.621Z,78.39
2017-12-12T09:59:30.418Z,78.30
2017-12-12T10:00:30.326Z,79.34
2017-12-12T10:02:23.097Z,78.87
2017-12-12T10:03:22.962Z,79.06
2017-12-12T10:05:15.697Z,78.96
2017-12-12T10:06:15.610Z,78.96
2017-12-12T10:08:08.373Z,78.96
2017-12-12T10:09:08.240Z,78.96
2017-12-12T10:11:01.016Z,78.02
2017-12-12T10:12:00.884Z,78.02
2017-12-12T10:13:53.613Z,77.45
2017-12-12T10:14:53.524Z,78.02
2017-12-12T10:16:46.296Z,77.73
2017-12-12T10:17:46.158Z,78.30
2017-12-12T10:19:38.917Z,77.06
2017-12-12T10:20:38.787Z,77.83
2017-12-12T10:22:32.048Z,78.02
2017-12-12T10:23:31.915Z,78.43
2017-12-12T10:25:24.648Z,77.16
2017-12-12T10:26:24.558Z,77.20
2017-12-12T10:28:17.323Z,77.11
2017-12-12T10:29:17.189Z,77.20
2017-12-12T10:31:09.960Z,76.73
2017-12-12T10:32:09.828Z,76.54
2017-12-12T10:34:02.561Z,75.59
2017-12-12T10:35:02.470Z,75.21
2017-12-12T10:36:55.240Z,75.96
2017-12-12T10:37:55.117Z,75.59
2017-12-12T10:39:47.836Z,75.31
2017-12-12T10:40:47.749Z,76.06
2017-12-12T10:42:40.523Z,76.73
2017-12-12T10:43:40.387Z,77.11
2017-12-12T10:45:33.110Z,76.73
2017-12-12T10:46:33.020Z,77.11
2017-12-12T10:48:25.797Z,76.44
2017-12-12T10:49:25.664Z,77.01
2017-12-12T10:51:18.428Z,75.59
2017-12-12T10:52:18.298Z,75.74
2017-12-12T10:54:11.016Z,76.78
2017-12-12T10:55:10.929Z,76.87
2017-12-12T10:57:03.698Z,77.16
2017-12-12T10:58:03.563Z,77.16
2017-12-12T10:59:56.298Z,76.78
2017-12-12T11:00:56.208Z,76.31
2017-12-12T11:02:48.970Z,76.40
2017-12-12T11:03:48.840Z,76.68
2017-12-12T11:05:41.620Z,76.21
2017-12-12T11:06:41.487Z,76.59
2017-12-12T11:08:34.233Z,76.50
2017-12-12T11:09:34.140Z,76.59
2017-12-12T11:11:26.910Z,76.12
2017-12-12T11:12:26.775Z,75.49
2017-12-12T11:14:19.504Z,75.78
2017-12-12T11:15:19.808Z,75.21
2017-12-12T11:17:12.171Z,75.21
2017-12-12T11:18:12.037Z,75.02
2017-12-12T11:20:04.769Z,75.31
2017-12-12T11:21:04.682Z,74.77
2017-12-12T11:22:57.444Z,73.63
2017-12-12T11:23:57.311Z,72.59
2017-12-12T11:25:50.047Z,71.64
2017-12-12T11:26:49.956Z,71.83
2017-12-12T11:28:42.722Z,71.83
2017-12-12T11:29:42.589Z,72.11
2017-12-12T11:31:35.312Z,72.53
2017-12-12T11:32:35.222Z,70.92
2017-12-12T11:34:28.002Z,69.87
2017-12-12T11:35:27.867Z,69.30
2017-12-12T11:37:20.639Z,67.63
2017-12-12T11:38:20.506Z,66.30
2017-12-12T11:40:13.227Z,65.95
2017-12-12T11:41:13.146Z,65.86
2017-12-12T11:43:06.045Z,64.65
2017-12-12T11:44:05.797Z,63.70
2017-12-12T11:45:58.536Z,62.72
2017-12-12T11:46:58.457Z,63.95
2017-12-12T11:48:51.221Z,65.09
2017-12-12T11:49:51.093Z,65.35
2017-12-12T11:51:43.823Z,67.40
2017-12-12T11:52:43.739Z,67.59
2017-12-12T11:54:37.003Z,68.60
2017-12-12T11:55:36.873Z,68.79
2017-12-12T11:57:29.610Z,69.84
2017-12-12T11:58:29.531Z,70.21
2017-12-12T12:00:22.309Z,70.78
2017-12-12T12:01:22.171Z,71.45
2017-12-12T12:03:14.910Z,71.51
2017-12-12T12:04:14.823Z,71.70
2017-12-12T12:06:07.602Z,72.55
2017-12-12T12:07:07.472Z,72.93
2017-12-12T12:09:00.202Z,72.84
2017-12-12T12:10:00.114Z,73.03
2017-12-12T12:11:52.897Z,73.03
2017-12-12T12:12:52.755Z,72.93
2017-12-12T12:14:45.540Z,73.79
2017-12-12T12:15:45.401Z,73.41
2017-12-12T12:17:38.169Z,73.03
2017-12-12T12:18:38.078Z,73.41
2017-12-12T12:20:30.854Z,73.60
2017-12-12T12:21:30.724Z,73.69
2017-12-12T12:23:23.455Z,74.45
2017-12-12T12:24:23.366Z,74.64
2017-12-12T12:26:16.132Z,73.97
2017-12-12T12:27:15.998Z,74.35
2017-12-12T12:29:08.745Z,74.45
2017-12-12T12:30:08.650Z,74.64
2017-12-12T12:32:01.419Z,74.07
2017-12-12T12:33:01.288Z,74.83
2017-12-12T12:34:54.009Z,74.54
2017-12-12T12:35:53.923Z,74.54
2017-12-12T12:37:47.039Z,74.54
2017-12-12T12:38:46.905Z,74.64
2017-12-12T12:40:39.630Z,75.31
2017-12-12T12:41:39.544Z,75.21
2017-12-12T12:43:32.313Z,75.31
2017-12-12T12:44:32.178Z,75.02
2017-12-12T12:46:25.449Z,75.31
2017-12-12T12:47:25.306Z,75.21
2017-12-12T12:49:18.034Z,74.83
2017-12-12T12:50:17.940Z,75.11
2017-12-12T12:52:10.713Z,74.92
2017-12-12T12:53:10.579Z,75.02
2017-12-12T12:55:03.304Z,73.97
2017-12-12T12:56:03.213Z,73.88
2017-12-12T12:57:56.474Z,74.64
2017-12-12T12:58:56.623Z,74.83
2017-12-12T13:00:49.065Z,74.35
2017-12-12T13:01:48.972Z,74.83
2017-12-12T13:03:41.746Z,75.11
2017-12-12T13:04:41.612Z,75.11
2017-12-12T13:06:34.395Z,75.78
2017-12-12T13:07:34.248Z,75.02
2017-12-12T13:09:27.474Z,75.21
2017-12-12T13:10:27.383Z,75.11
2017-12-12T13:12:20.162Z,75.59
2017-12-12T13:13:20.022Z,76.15
2017-12-12T13:15:13.235Z,75.96
2017-12-12T13:16:13.146Z,75.02
2017-12-12T13:18:05.921Z,74.73
2017-12-12T13:19:05.782Z,74.64
2017-12-12T13:20:58.512Z,74.92
2017-12-12T13:21:58.423Z,74.45
2017-12-12T13:23:51.211Z,74.54
2017-12-12T13:24:51.071Z,74.35
2017-12-12T13:26:44.289Z,74.45
2017-12-12T13:27:44.197Z,74.64
2017-12-12T13:29:37.073Z,75.02
2017-12-12T13:30:36.939Z,75.59
2017-12-12T13:32:29.707Z,75.68
2017-12-12T13:33:29.577Z,75.21
2017-12-12T13:35:22.613Z,74.35
2017-12-12T13:36:22.300Z,74.73
2017-12-12T13:38:14.940Z,74.92
2017-12-12T13:39:14.853Z,76.15
2017-12-12T13:41:07.708Z,76.34
2017-12-12T13:42:07.492Z,75.87
2017-12-12T13:44:00.211Z,76.15
2017-12-12T13:45:00.122Z,76.63
2017-12-12T13:46:52.902Z,75.96
2017-12-12T13:47:52.762Z,75.87
2017-12-12T13:49:45.478Z,75.96
2017-12-12T13:50:45.392Z,76.06
2017-12-12T13:52:38.653Z,76.73
2017-12-12T13:53:38.520Z,77.01
2017-12-12T13:55:31.287Z,76.73
2017-12-12T13:56:31.151Z,76.82
2017-12-12T13:58:23.952Z,76.97
2017-12-12T13:59:23.779Z,76.50
2017-12-12T14:01:16.504Z,76.78
2017-12-12T14:02:16.415Z,76.31
2017-12-12T14:04:09.187Z,76.31
2017-12-12T14:05:09.060Z,76.50
2017-12-12T14:07:01.783Z,76.40
2017-12-12T14:08:01.695Z,76.59
2017-12-12T14:09:54.464Z,76.50
2017-12-12T14:10:54.332Z,76.59
2017-12-12T14:12:47.046Z,76.87
2017-12-12T14:13:46.960Z,76.68
2017-12-12T14:15:39.777Z,76.40
2017-12-12T14:16:39.631Z,76.50
2017-12-12T14:18:32.598Z,77.06
2017-12-12T14:19:32.387Z,76.97
2017-12-12T14:21:25.163Z,77.16
2017-12-12T14:22:25.082Z,76.50
2017-12-12T14:24:19.433Z,76.97
2017-12-12T14:25:18.226Z,77.16
2017-12-12T14:27:11.000Z,77.25
2017-12-12T14:28:10.927Z,77.45
2017-12-12T14:30:03.814Z,77.25
2017-12-12T14:31:03.619Z,77.06
2017-12-12T14:32:56.376Z,76.97
2017-12-12T14:33:56.279Z,76.40
2017-12-12T14:35:49.738Z,77.06
2017-12-12T14:36:48.978Z,77.25
2017-12-12T14:38:42.316Z,76.97
2017-12-12T14:39:42.302Z,76.97
2017-12-12T14:41:34.471Z,77.06
2017-12-12T14:42:34.301Z,77.06
2017-12-12T14:44:27.047Z,77.25
2017-12-12T14:45:26.953Z,77.45
2017-12-12T14:47:19.745Z,77.25
2017-12-12T14:48:19.599Z,77.64
2017-12-12T14:50:12.462Z,77.54
2017-12-12T14:51:12.270Z,77.25
2017-12-12T14:53:05.506Z,77.25
2017-12-12T14:54:05.415Z,77.45
2017-12-12T14:55:58.238Z,76.87
2017-12-12T14:56:58.089Z,77.06
2017-12-12T14:58:50.862Z,77.25
2017-12-12T14:59:51.445Z,77.25
2017-12-12T15:01:43.732Z,77.06
2017-12-12T15:02:43.439Z,77.06
2017-12-12T15:04:36.356Z,77.45
2017-12-12T15:05:36.035Z,77.35
2017-12-12T15:07:29.042Z,77.06
2017-12-12T15:08:28.901Z,77.92
2017-12-12T15:10:21.866Z,77.64
2017-12-12T15:11:21.721Z,78.11
2017-12-12T15:13:14.980Z,77.54
2017-12-12T15:14:14.843Z,78.30
2017-12-12T15:16:07.582Z,78.49
2017-12-12T15:17:07.491Z,78.77
2017-12-12T15:19:00.265Z,78.11
2017-12-12T15:20:00.132Z,78.20
2017-12-12T15:21:53.357Z,78.20
2017-12-12T15:22:53.261Z,78.39
2017-12-12T15:24:46.028Z,78.30
2017-12-12T15:25:45.894Z,78.02
2017-12-12T15:27:38.691Z,79.15
2017-12-12T15:28:38.554Z,79.06
2017-12-12T15:30:31.464Z,79.06
2017-12-12T15:31:31.378Z,78.96
2017-12-12T15:33:24.730Z,79.15
2017-12-12T15:34:24.524Z,79.53
2017-12-12T15:36:17.795Z,79.34
2017-12-12T15:37:17.696Z,79.34
2017-12-12T15:39:10.500Z,79.91
2017-12-12T15:40:10.371Z,80.29
2017-12-12T15:42:03.084Z,80.00
2017-12-12T15:43:02.993Z,79.91
2017-12-12T15:44:55.765Z,80.38
2017-12-12T15:45:55.622Z,80.86
2017-12-12T15:47:48.337Z,80.86
2017-12-12T15:48:48.247Z,81.81
2017-12-12T15:50:41.015Z,81.90
2017-12-12T15:51:40.879Z,81.90
2017-12-12T15:53:34.093Z,82.37
2017-12-12T15:54:34.006Z,82.56
2017-12-12T15:56:26.769Z,82.85
2017-12-12T15:57:26.637Z,82.75
2017-12-12T15:59:19.408Z,83.51
2017-12-12T16:00:19.261Z,83.23
2017-12-12T16:02:11.987Z,83.61
2017-12-12T16:03:11.898Z,83.42
2017-12-12T16:05:04.665Z,83.70
2017-12-12T16:06:04.521Z,84.17
2017-12-12T16:07:57.769Z,83.98
2017-12-12T16:08:57.681Z,84.08
2017-12-12T16:10:51.003Z,84.36
2017-12-12T16:11:50.841Z,84.17
2017-12-12T16:13:43.546Z,84.46
2017-12-12T16:14:43.459Z,84.46
2017-12-12T16:16:36.242Z,84.65
2017-12-12T16:17:36.098Z,84.94
2017-12-12T16:19:28.819Z,84.46
2017-12-12T16:20:28.739Z,84.46
2017-12-12T16:22:22.435Z,84.27
2017-12-12T16:23:21.861Z,84.27
2017-12-12T16:25:14.581Z,84.65
2017-12-12T16:26:14.501Z,84.36
2017-12-12T16:28:07.264Z,84.27
2017-12-12T16:29:07.157Z,84.84
2017-12-12T16:30:59.855Z,84.65
2017-12-12T16:31:59.768Z,84.65
2017-12-12T16:33:52.546Z,84.65
2017-12-12T16:34:52.413Z,84.65
2017-12-12T16:36:45.172Z,84.84
2017-12-12T16:37:45.053Z,84.65
2017-12-12T16:39:38.760Z,84.84
2017-12-12T16:40:38.672Z,84.74
2017-12-12T16:42:31.432Z,84.94
2017-12-12T16:43:31.298Z,85.13
2017-12-12T16:45:24.031Z,85.22
2017-12-12T16:46:23.934Z,84.84
2017-12-12T16:48:16.697Z,85.13
2017-12-12T16:49:16.561Z,85.41
2017-12-12T16:51:09.279Z,85.50
2017-12-12T16:52:09.189Z,85.50
2017-12-12T16:54:01.957Z,85.60
2017-12-12T16:55:01.822Z,85.69
2017-12-12T16:56:55.090Z,86.26
2017-12-12T16:57:54.956Z,85.88
2017-12-12T16:59:47.669Z,85.97
2017-12-12T17:00:47.579Z,85.78
2017-12-12T17:02:41.347Z,85.60
2017-12-12T17:03:41.216Z,85.78
2017-12-12T17:05:33.926Z,86.26
2017-12-12T17:06:33.837Z,86.16
2017-12-12T17:08:26.624Z,85.88
2017-12-12T17:09:26.490Z,85.50
2017-12-12T17:11:19.207Z,85.78
2017-12-12T17:12:19.118Z,85.88
2017-12-12T17:14:11.918Z,86.26
2017-12-12T17:15:11.775Z,86.16
2017-12-12T17:17:05.061Z,86.07
2017-12-12T17:18:04.914Z,86.16
2017-12-12T17:19:57.643Z,86.64
2017-12-12T17:20:57.553Z,86.16
2017-12-12T17:22:50.324Z,86.45
2017-12-12T17:23:50.194Z,86.83
2017-12-12T17:25:43.413Z,86.55
2017-12-12T17:26:43.320Z,85.88
2017-12-12T17:28:36.086Z,86.16
2017-12-12T17:29:35.949Z,85.97
2017-12-12T17:31:28.686Z,86.16
2017-12-12T17:32:28.584Z,85.69
2017-12-12T17:34:21.351Z,85.97
2017-12-12T17:35:21.214Z,85.97
2017-12-12T17:37:13.930Z,85.88
2017-12-12T17:38:13.841Z,85.97
2017-12-12T17:40:06.752Z,86.07
2017-12-12T17:41:06.748Z,85.97
2017-12-12T17:42:59.349Z,86.26
2017-12-12T17:43:59.251Z,85.97
2017-12-12T17:45:52.136Z,85.97
2017-12-12T17:46:52.061Z,85.78
2017-12-12T17:48:44.752Z,85.78
2017-12-12T17:49:44.643Z,85.88
2017-12-12T17:51:37.431Z,86.64
2017-12-12T17:52:37.293Z,86.35
2017-12-12T17:54:30.364Z,86.07
2017-12-12T17:55:30.420Z,86.07
2017-12-12T17:57:23.221Z,86.55
2017-12-12T17:58:23.081Z,86.83
2017-12-12T18:00:16.158Z,87.12
2017-12-12T18:01:15.712Z,86.74
2017-12-12T18:03:08.686Z,87.40
2017-12-12T18:04:08.411Z,87.12
2017-12-12T18:06:01.284Z,87.21
2017-12-12T18:07:01.196Z,86.93
2017-12-12T18:08:53.884Z,86.64
2017-12-12T18:09:53.789Z,86.93
2017-12-12T18:11:46.662Z,86.26
2017-12-12T18:12:46.540Z,86.07
2017-12-12T18:14:39.390Z,86.07
2017-12-12T18:15:39.170Z,85.78
2017-12-12T18:17:31.945Z,86.55
2017-12-12T18:18:31.886Z,86.26
2017-12-12T18:20:24.606Z,85.88
2017-12-12T18:21:24.609Z,85.88
2017-12-12T18:23:17.325Z,86.07
2017-12-12T18:24:17.279Z,86.93
2017-12-12T18:26:10.457Z,86.26
2017-12-12T18:27:10.318Z,86.55
2017-12-12T18:29:03.044Z,86.64
2017-12-12T18:30:02.950Z,86.83
2017-12-12T18:31:56.216Z,85.88